Time;durP1;ratioP1;P1;durP2;ratioP2;P2;SDS_P1;SDS_P2;PMS_P1;PMS_P2;Temp;Humidity;BMP_temperature;BMP_pressure;BME280_temperature;BME280_humidity;BME280_pressure;Samples;Min_cycle;Max_cycle;Signal;HPM_P1;HPM_P2
2023/09/12 00:02:10;;;;;;;766.55;685.80;;;;;;;;;;4994898;28;20057;-65
2023/09/12 00:04:36;;;;;;;770.47;690.80;;;;;;;;;;4992882;28;20050;-67
2023/09/12 00:07:03;;;;;;;771.78;691.45;;;;;;;;;;5012387;28;20112;-64
2023/09/12 00:09:30;;;;;;;780.35;700.88;;;;;;;;;;5012260;28;20479;-64
2023/09/12 00:11:56;;;;;;;766.95;686.70;;;;;;;;;;4987538;28;20044;-64
2023/09/12 00:14:23;;;;;;;762.88;682.17;;;;;;;;;;5011950;28;20041;-64
2023/09/12 00:16:52;;;;;;;772.88;693.53;;;;;;;;;;5013030;28;20041;-67
2023/09/12 00:19:19;;;;;;;774.05;693.42;;;;;;;;;;5002532;28;20046;-64
2023/09/12 00:21:45;;;;;;;768.28;688.03;;;;;;;;;;4990710;28;20049;-64
2023/09/12 00:24:12;;;;;;;756.60;677.30;;;;;;;;;;5011272;28;20490;-66
2023/09/12 00:26:39;;;;;;;760.80;681.15;;;;;;;;;;5009117;28;20069;-69
2023/09/12 00:29:05;;;;;;;744.60;665.33;;;;;;;;;;5013009;28;20038;-65
2023/09/12 00:31:32;;;;;;;758.67;679.20;;;;;;;;;;4990447;28;20037;-65
2023/09/12 00:33:58;;;;;;;736.92;658.05;;;;;;;;;;4994084;28;20100;-65
2023/09/12 00:36:25;;;;;;;748.72;669.22;;;;;;;;;;5011810;28;20061;-65
2023/09/12 00:38:52;;;;;;;752.80;673.80;;;;;;;;;;4986541;28;20137;-64
2023/09/12 00:41:18;;;;;;;762.47;679.53;;;;;;;;;;5010208;28;20050;-65
2023/09/12 00:43:45;;;;;;;747.17;669.17;;;;;;;;;;4983760;28;20419;-64
2023/09/12 00:46:17;;;;;;;737.78;660.03;;;;;;;;;;4987017;28;20066;-63
2023/09/12 00:48:44;;;;;;;752.27;673.33;;;;;;;;;;4993801;28;20111;-64
2023/09/12 00:51:12;;;;;;;745.25;666.30;;;;;;;;;;4993559;28;20037;-65
2023/09/12 00:53:39;;;;;;;734.63;656.00;;;;;;;;;;5011385;28;20124;-65
2023/09/12 00:56:06;;;;;;;746.85;667.95;;;;;;;;;;4993586;28;20205;-63
2023/09/12 00:58:33;;;;;;;749.28;669.60;;;;;;;;;;4971145;28;20388;-64
2023/09/12 01:00:59;;;;;;;754.80;675.53;;;;;;;;;;4999878;28;20049;-64
2023/09/12 01:03:27;;;;;;;748.72;669.78;;;;;;;;;;4990633;28;20050;-64
2023/09/12 01:05:54;;;;;;;740.90;661.50;;;;;;;;;;5011321;28;20042;-66
2023/09/12 01:08:21;;;;;;;748.58;666.25;;;;;;;;;;5011271;28;20049;-65
2023/09/12 01:10:49;;;;;;;760.30;680.42;;;;;;;;;;4994176;28;20092;-63
2023/09/12 01:13:16;;;;;;;754.70;675.00;;;;;;;;;;5008861;28;20475;-65
2023/09/12 01:15:43;;;;;;;746.25;667.58;;;;;;;;;;4970805;28;20438;-65
2023/09/12 01:18:11;;;;;;;759.40;679.67;;;;;;;;;;4993361;28;20042;-65
2023/09/12 01:20:41;;;;;;;763.28;679.97;;;;;;;;;;4993348;28;20045;-65
2023/09/12 01:23:14;;;;;;;754.15;676.03;;;;;;;;;;4994709;28;20046;-66
2023/09/12 01:25:47;;;;;;;736.40;658.15;;;;;;;;;;4991757;28;20093;-66
2023/09/12 01:28:14;;;;;;;;;;;;;;;;;;4990824;28;20069;-65
2023/09/12 01:30:41;;;;;;;730.83;652.53;;;;;;;;;;5006214;28;19921;-66
2023/09/12 01:33:08;;;;;;;749.50;670.78;;;;;;;;;;5010971;28;20053;-66
2023/09/12 01:35:35;;;;;;;755.58;676.03;;;;;;;;;;5009494;28;20073;-64
2023/09/12 01:38:02;;;;;;;752.85;672.78;;;;;;;;;;4994181;28;20042;-65
2023/09/12 01:40:34;;;;;;;749.45;670.15;;;;;;;;;;5008772;28;20045;-65
2023/09/12 01:43:03;;;;;;;742.15;663.20;;;;;;;;;;4993061;28;20418;-63
2023/09/12 01:45:31;;;;;;;742.80;663.90;;;;;;;;;;5002153;28;20447;-66
2023/09/12 01:47:58;;;;;;;726.25;648.10;;;;;;;;;;4985488;28;20046;-63
2023/09/12 01:50:26;;;;;;;745.00;664.38;;;;;;;;;;4993011;28;20054;-64
2023/09/12 01:52:53;;;;;;;750.72;671.15;;;;;;;;;;4991263;28;20495;-69
2023/09/12 01:55:20;;;;;;;746.38;666.28;;;;;;;;;;5005487;28;20052;-64
2023/09/12 01:57:47;;;;;;;725.17;648.20;;;;;;;;;;5010908;28;20120;-64
2023/09/12 02:03:34;;;;;;;763.65;634.50;;;;;;;;;;3172379;23;20053;-64
2023/09/12 02:06:02;;;;;;;756.35;634.88;;;;;;;;;;5009943;28;20569;-63
2023/09/12 02:08:29;;;;;;;784.45;653.80;;;;;;;;;;5031340;28;20893;-63
2023/09/12 02:10:56;;;;;;;765.58;650.30;;;;;;;;;;5007173;28;20069;-62
2023/09/12 02:13:23;;;;;;;754.78;642.15;;;;;;;;;;5016441;28;20045;-62
2023/09/12 02:15:49;;;;;;;755.17;643.67;;;;;;;;;;5011798;28;20494;-63
2023/09/12 02:18:16;;;;;;;749.47;635.80;;;;;;;;;;5030833;28;20064;-62
2023/09/12 02:20:46;;;;;;;763.72;642.83;;;;;;;;;;5031758;28;20049;-64
2023/09/12 02:23:13;;;;;;;765.38;640.38;;;;;;;;;;5030974;28;20042;-66
2023/09/12 02:25:39;;;;;;;744.35;639.63;;;;;;;;;;5032907;28;20052;-67
2023/09/12 02:28:06;;;;;;;743.60;632.33;;;;;;;;;;5031614;28;20049;-62
2023/09/12 02:30:33;;;;;;;749.15;634.28;;;;;;;;;;5035285;28;20520;-64
2023/09/12 02:33:00;;;;;;;765.05;641.95;;;;;;;;;;5031894;28;20054;-62
2023/09/12 02:35:27;;;;;;;807.53;645.05;;;;;;;;;;5041573;28;20053;-62
2023/09/12 02:37:55;;;;;;;761.45;631.08;;;;;;;;;;5032209;28;20536;-63
2023/09/12 02:40:21;;;;;;;764.13;640.05;;;;;;;;;;5028582;28;20041;-66
2023/09/12 02:42:48;;;;;;;772.92;627.13;;;;;;;;;;5029432;28;20072;-64
2023/09/12 02:45:15;;;;;;;762.20;629.53;;;;;;;;;;5031838;28;20057;-63
2023/09/12 02:47:43;;;;;;;756.67;629.40;;;;;;;;;;5032125;28;20042;-65
2023/09/12 02:50:10;;;;;;;757.55;628.50;;;;;;;;;;5029473;28;20406;-72
2023/09/12 02:52:36;;;;;;;766.92;632.58;;;;;;;;;;5032845;28;20056;-65
2023/09/12 02:55:03;;;;;;;742.53;627.95;;;;;;;;;;5049252;28;20045;-63
2023/09/12 02:57:30;;;;;;;898.45;628.28;;;;;;;;;;5050498;28;20041;-62
2023/09/12 02:59:57;;;;;;;816.10;633.40;;;;;;;;;;5032240;28;20099;-63
2023/09/12 03:02:23;;;;;;;789.45;630.33;;;;;;;;;;5047769;28;20053;-64
2023/09/12 03:04:50;;;;;;;757.47;633.45;;;;;;;;;;5053757;28;20520;-64
2023/09/12 03:07:17;;;;;;;755.38;615.08;;;;;;;;;;5048952;28;20045;-63
2023/09/12 03:09:44;;;;;;;757.38;627.05;;;;;;;;;;5051608;28;20057;-63
2023/09/12 03:12:11;;;;;;;745.70;626.25;;;;;;;;;;5049156;28;20087;-64
2023/09/12 03:14:38;;;;;;;778.28;631.00;;;;;;;;;;5051393;28;20034;-64
2023/09/12 03:17:04;;;;;;;745.60;608.67;;;;;;;;;;5052108;28;20124;-63
2023/09/12 03:19:33;;;;;;;754.67;621.42;;;;;;;;;;5032005;28;20136;-63
2023/09/12 03:21:59;;;;;;;759.72;623.25;;;;;;;;;;5050376;28;20064;-65
2023/09/12 03:24:28;;;;;;;753.35;618.22;;;;;;;;;;5025000;28;20041;-64
2023/09/12 03:26:56;;;;;;;743.35;612.40;;;;;;;;;;5031920;28;20041;-64
2023/09/12 03:29:23;;;;;;;798.22;625.75;;;;;;;;;;5047796;28;20405;-68
2023/09/12 03:31:49;;;;;;;743.05;600.17;;;;;;;;;;5013689;28;20133;-67
2023/09/12 03:34:16;;;;;;;733.28;600.95;;;;;;;;;;5045594;28;20060;-63
2023/09/12 03:36:43;;;;;;;758.58;620.90;;;;;;;;;;5033920;28;20072;-63
2023/09/12 03:39:12;;;;;;;759.42;620.28;;;;;;;;;;5049839;28;20085;-63
2023/09/12 03:41:40;;;;;;;750.63;615.78;;;;;;;;;;5043863;28;20050;-64
2023/09/12 03:44:07;;;;;;;758.65;622.08;;;;;;;;;;5053523;28;20045;-66
2023/09/12 03:46:42;;;;;;;759.15;615.70;;;;;;;;;;5032380;28;20069;-63
2023/09/12 03:49:10;;;;;;;752.28;612.63;;;;;;;;;;5031041;28;20150;-64
2023/09/12 03:51:38;;;;;;;746.97;622.50;;;;;;;;;;5031575;28;20037;-63
2023/09/12 03:54:05;;;;;;;754.35;618.58;;;;;;;;;;5031173;28;20050;-63
2023/09/12 03:56:32;;;;;;;765.85;617.20;;;;;;;;;;5047734;28;20049;-66
2023/09/12 03:58:59;;;;;;;782.08;616.72;;;;;;;;;;5032022;28;20041;-65
2023/09/12 04:01:26;;;;;;;767.80;613.47;;;;;;;;;;5031241;28;20049;-64
2023/09/12 04:03:54;;;;;;;741.58;607.50;;;;;;;;;;5037766;28;20057;-64
2023/09/12 04:06:21;;;;;;;761.53;630.65;;;;;;;;;;5030962;28;20091;-64
2023/09/12 04:08:47;;;;;;;803.83;607.38;;;;;;;;;;5027296;28;20505;-68
2023/09/12 04:11:14;;;;;;;774.90;602.50;;;;;;;;;;5029381;28;20083;-71
2023/09/12 04:13:40;;;;;;;769.15;604.47;;;;;;;;;;5032543;28;20506;-65
2023/09/12 04:16:07;;;;;;;780.15;623.50;;;;;;;;;;5030346;28;20107;-65
2023/09/12 04:18:34;;;;;;;754.00;620.28;;;;;;;;;;5028690;28;20045;-66
2023/09/12 04:21:01;;;;;;;760.72;628.25;;;;;;;;;;5030399;28;20045;-65
2023/09/12 04:23:28;;;;;;;904.63;616.38;;;;;;;;;;5044209;28;20091;-63
2023/09/12 04:25:54;;;;;;;755.25;614.00;;;;;;;;;;5029983;28;20050;-63
2023/09/12 04:28:21;;;;;;;746.10;623.17;;;;;;;;;;5027932;28;20045;-66
2023/09/12 04:30:48;;;;;;;757.13;623.40;;;;;;;;;;5030472;28;20049;-65
2023/09/12 04:33:15;;;;;;;766.03;626.20;;;;;;;;;;5029741;28;20407;-64
2023/09/12 04:35:42;;;;;;;764.65;627.85;;;;;;;;;;5029418;28;20125;-63
2023/09/12 04:38:09;;;;;;;777.08;635.35;;;;;;;;;;5027464;28;20100;-63
2023/09/12 04:40:35;;;;;;;772.47;619.15;;;;;;;;;;5046243;28;20049;-66
2023/09/12 04:43:02;;;;;;;762.92;633.50;;;;;;;;;;5029911;28;20056;-66
2023/09/12 04:45:29;;;;;;;782.13;628.97;;;;;;;;;;5028309;28;20044;-67
2023/09/12 04:47:56;;;;;;;765.90;637.42;;;;;;;;;;5047392;28;20041;-67
2023/09/12 04:50:26;;;;;;;783.75;653.63;;;;;;;;;;5037875;28;20060;-65
2023/09/12 04:52:53;;;;;;;759.65;641.78;;;;;;;;;;5028506;28;20478;-68
2023/09/12 04:55:20;;;;;;;761.55;648.38;;;;;;;;;;5023240;28;20483;-67
2023/09/12 04:57:47;;;;;;;760.58;662.42;;;;;;;;;;5048932;28;20083;-65
2023/09/12 05:00:14;;;;;;;774.63;681.45;;;;;;;;;;5030042;28;20045;-66
2023/09/12 05:02:40;;;;;;;832.50;700.17;;;;;;;;;;5026853;28;20095;-65
2023/09/12 05:05:07;;;;;;;772.10;687.30;;;;;;;;;;5052492;28;20045;-66
2023/09/12 05:07:52;;;;;;;792.72;706.40;;;;;;;;;;5047455;28;20076;-68
2023/09/12 05:10:19;;;;;;;843.22;714.80;;;;;;;;;;5037856;28;20053;-66
2023/09/12 05:12:46;;;;;;;806.40;709.90;;;;;;;;;;5022002;28;20079;-66
2023/09/12 05:15:14;;;;;;;820.60;723.17;;;;;;;;;;5047143;28;20052;-67
2023/09/12 05:17:40;;;;;;;840.78;718.47;;;;;;;;;;5013104;28;20076;-66
2023/09/12 05:20:07;;;;;;;822.05;730.75;;;;;;;;;;5033985;28;20049;-63
2023/09/12 05:22:34;;;;;;;1280.75;725.22;;;;;;;;;;5047996;28;20079;-64
2023/09/12 05:25:01;;;;;;;904.25;729.75;;;;;;;;;;5043207;28;20041;-64
2023/09/12 05:27:27;;;;;;;932.20;742.53;;;;;;;;;;5032591;28;20044;-64
2023/09/12 05:29:54;;;;;;;867.40;733.17;;;;;;;;;;5032789;28;20037;-64
2023/09/12 05:32:21;;;;;;;914.33;744.38;;;;;;;;;;5031498;28;20048;-65
2023/09/12 05:34:49;;;;;;;840.10;746.67;;;;;;;;;;5032461;28;20079;-65
2023/09/12 05:37:20;;;;;;;843.10;752.00;;;;;;;;;;5026114;28;20041;-66
2023/09/12 05:39:47;;;;;;;844.00;755.05;;;;;;;;;;5041012;28;20041;-68
2023/09/12 05:42:20;;;;;;;853.47;764.15;;;;;;;;;;5047682;28;20037;-64
2023/09/12 05:44:48;;;;;;;860.08;766.85;;;;;;;;;;5050862;28;20052;-64
2023/09/12 05:47:15;;;;;;;845.03;753.83;;;;;;;;;;5036812;28;20098;-71
2023/09/12 05:49:42;;;;;;;926.30;760.00;;;;;;;;;;5049250;28;20133;-64
2023/09/12 05:52:09;;;;;;;860.97;768.13;;;;;;;;;;5036596;28;20056;-65
2023/09/12 05:54:36;;;;;;;861.97;773.55;;;;;;;;;;5037319;28;20049;-65
2023/09/12 05:57:03;;;;;;;872.28;784.05;;;;;;;;;;5049897;28;20044;-65
2023/09/12 05:59:31;;;;;;;894.63;798.90;;;;;;;;;;5035870;28;20045;-64
2023/09/12 06:01:58;;;;;;;884.88;790.92;;;;;;;;;;5054722;28;20127;-66
2023/09/12 06:04:25;;;;;;;881.85;792.72;;;;;;;;;;5034673;28;20579;-64
2023/09/12 06:06:52;;;;;;;898.47;807.28;;;;;;;;;;5051506;28;20120;-64
2023/09/12 06:09:19;;;;;;;910.80;814.72;;;;;;;;;;5053161;28;20071;-64
2023/09/12 06:11:45;;;;;;;923.17;828.28;;;;;;;;;;5049461;28;20643;-65
2023/09/12 06:14:13;;;;;;;930.95;837.58;;;;;;;;;;5056421;28;20091;-72
2023/09/12 06:16:39;;;;;;;919.58;830.20;;;;;;;;;;5029243;28;20045;-64
2023/09/12 06:19:06;;;;;;;951.05;857.90;;;;;;;;;;5037347;28;20053;-66
2023/09/12 06:21:33;;;;;;;954.45;859.28;;;;;;;;;;5052776;28;20502;-65
2023/09/12 06:24:16;;;;;;;987.13;890.58;;;;;;;;;;5047574;28;20049;-64
2023/09/12 06:26:43;;;;;;;1030.57;929.08;;;;;;;;;;5016702;28;20071;-64
2023/09/12 06:29:10;;;;;;;1047.07;950.05;;;;;;;;;;5036586;28;20041;-64
2023/09/12 06:31:37;;;;;;;1062.60;965.10;;;;;;;;;;5036545;28;20080;-64
2023/09/12 06:34:04;;;;;;;1084.40;986.30;;;;;;;;;;5036864;28;20044;-64
2023/09/12 06:36:30;;;;;;;1098.97;995.83;;;;;;;;;;5043858;28;20516;-62
2023/09/12 06:38:58;;;;;;;1114.40;999.90;;;;;;;;;;5051419;28;20107;-62
2023/09/12 06:41:25;;;;;;;1132.05;999.90;;;;;;;;;;5035263;28;20049;-64
2023/09/12 06:43:52;;;;;;;1123.22;999.90;;;;;;;;;;5052587;28;20102;-67
2023/09/12 06:46:18;;;;;;;1137.18;999.90;;;;;;;;;;5057163;28;20045;-65
2023/09/12 06:48:45;;;;;;;1136.78;999.90;;;;;;;;;;5050240;28;20052;-67
2023/09/12 06:51:12;;;;;;;1119.25;999.90;;;;;;;;;;5038762;28;20041;-64
2023/09/12 06:53:44;;;;;;;1129.80;999.90;;;;;;;;;;5051475;28;20446;-63
2023/09/12 06:56:11;;;;;;;1135.97;999.90;;;;;;;;;;5030396;28;20060;-64
2023/09/12 06:58:38;;;;;;;1138.65;999.90;;;;;;;;;;5040091;28;20079;-67
2023/09/12 07:01:06;;;;;;;1143.88;999.90;;;;;;;;;;5037673;28;20080;-69
2023/09/12 07:03:33;;;;;;;1149.70;999.90;;;;;;;;;;5036354;28;20045;-64
2023/09/12 07:06:00;;;;;;;1162.07;999.90;;;;;;;;;;5053730;28;20124;-64
2023/09/12 07:08:28;;;;;;;1169.28;999.90;;;;;;;;;;5056841;28;20044;-70
2023/09/12 07:10:57;;;;;;;1152.07;999.90;;;;;;;;;;5035021;28;20057;-66
2023/09/12 07:13:24;;;;;;;1161.20;999.90;;;;;;;;;;5035359;28;20124;-66
2023/09/12 07:15:50;;;;;;;1168.78;999.90;;;;;;;;;;5035743;28;20050;-65
2023/09/12 07:18:18;;;;;;;1169.97;999.90;;;;;;;;;;5046498;28;20478;-68
2023/09/12 07:20:45;;;;;;;1168.40;999.90;;;;;;;;;;5035036;28;20103;-64
2023/09/12 07:23:12;;;;;;;1139.97;999.90;;;;;;;;;;5034375;28;20103;-66
2023/09/12 07:25:40;;;;;;;1153.82;999.90;;;;;;;;;;5050361;28;20051;-65
2023/09/12 07:28:08;;;;;;;1140.32;999.90;;;;;;;;;;5034078;28;20045;-65
2023/09/12 07:30:35;;;;;;;1132.72;999.90;;;;;;;;;;5049076;28;20044;-66
2023/09/12 07:33:03;;;;;;;1128.25;999.90;;;;;;;;;;5054580;28;20037;-65
2023/09/12 07:35:30;;;;;;;1133.55;999.90;;;;;;;;;;5033339;28;20045;-69
2023/09/12 07:37:57;;;;;;;1119.72;999.90;;;;;;;;;;5056407;28;20047;-66
2023/09/12 07:40:24;;;;;;;1126.70;999.90;;;;;;;;;;5052099;28;20045;-67
2023/09/12 07:42:56;;;;;;;1105.05;998.72;;;;;;;;;;5033817;28;20072;-66
2023/09/12 07:45:23;;;;;;;1103.28;996.53;;;;;;;;;;5034095;28;20041;-66
2023/09/12 07:47:50;;;;;;;1108.60;998.92;;;;;;;;;;5031695;28;20046;-66
2023/09/12 07:50:17;;;;;;;1109.82;999.15;;;;;;;;;;5049513;28;20051;-73
2023/09/12 07:52:44;;;;;;;1100.50;994.75;;;;;;;;;;5053357;28;20079;-65
2023/09/12 07:55:11;;;;;;;1096.85;994.38;;;;;;;;;;5032113;28;20041;-65
2023/09/12 07:57:39;;;;;;;1085.28;982.85;;;;;;;;;;5048378;28;20123;-65
2023/09/12 08:00:09;;;;;;;1108.50;999.63;;;;;;;;;;5030769;28;20099;-67
2023/09/12 08:02:42;;;;;;;1094.00;988.15;;;;;;;;;;5015480;28;20057;-66
2023/09/12 08:05:10;;;;;;;1089.82;986.75;;;;;;;;;;5052292;28;20055;-69
2023/09/12 08:07:37;;;;;;;1094.00;989.05;;;;;;;;;;5029361;28;20049;-66
2023/09/12 08:10:04;;;;;;;1086.07;974.28;;;;;;;;;;5034048;28;20099;-80
2023/09/12 08:12:31;;;;;;;1078.10;974.22;;;;;;;;;;5043625;28;20053;-64
2023/09/12 08:14:59;;;;;;;1075.60;971.63;;;;;;;;;;5048314;28;20045;-64
2023/09/12 08:17:27;;;;;;;1077.82;971.50;;;;;;;;;;5015726;28;20428;-62
2023/09/12 08:19:54;;;;;;;1069.28;966.95;;;;;;;;;;5050786;28;20053;-65
2023/09/12 08:22:21;;;;;;;1075.95;972.95;;;;;;;;;;5048849;28;20041;-63
2023/09/12 08:24:49;;;;;;;1064.70;962.05;;;;;;;;;;5025024;28;20132;-63
2023/09/12 08:27:16;;;;;;;1077.32;973.30;;;;;;;;;;5031975;28;20076;-65
2023/09/12 08:29:46;;;;;;;1079.00;976.58;;;;;;;;;;5030454;28;20124;-66
2023/09/12 08:32:13;;;;;;;1070.50;966.90;;;;;;;;;;5052143;28;20055;-64
2023/09/12 08:34:41;;;;;;;1073.93;968.78;;;;;;;;;;5050400;28;20079;-66
2023/09/12 08:37:08;;;;;;;1079.40;975.45;;;;;;;;;;5048189;28;20122;-65
2023/09/12 08:39:43;;;;;;;1085.03;978.95;;;;;;;;;;5032541;28;20071;-65
2023/09/12 08:42:16;;;;;;;1081.35;977.10;;;;;;;;;;5016902;28;20051;-66
2023/09/12 08:44:44;;;;;;;1078.75;975.25;;;;;;;;;;5011666;28;20044;-63
2023/09/12 08:47:11;;;;;;;1086.05;982.15;;;;;;;;;;5034129;28;20049;-65
2023/09/12 08:49:39;;;;;;;1078.80;976.15;;;;;;;;;;5029716;28;20075;-66
2023/09/12 08:52:06;;;;;;;1084.93;980.13;;;;;;;;;;5047150;28;20473;-64
2023/09/12 08:54:33;;;;;;;1092.30;987.03;;;;;;;;;;5043637;28;20128;-65
2023/09/12 08:57:04;;;;;;;1083.32;978.90;;;;;;;;;;5046877;28;20037;-64
2023/09/12 08:59:33;;;;;;;1095.22;986.55;;;;;;;;;;5048823;28;20383;-66
2023/09/12 09:02:01;;;;;;;1085.60;981.35;;;;;;;;;;5014060;28;20099;-65
2023/09/12 09:04:29;;;;;;;1081.78;978.03;;;;;;;;;;5045058;28;20139;-65
2023/09/12 09:06:57;;;;;;;1080.88;977.90;;;;;;;;;;5047128;28;20045;-65
2023/09/12 09:09:25;;;;;;;1088.03;981.65;;;;;;;;;;5046075;28;20043;-65
2023/09/12 09:11:52;;;;;;;1079.90;974.30;;;;;;;;;;5031521;28;20509;-66
2023/09/12 09:14:19;;;;;;;1089.00;984.22;;;;;;;;;;5032724;28;20513;-64
2023/09/12 09:16:47;;;;;;;1082.70;978.47;;;;;;;;;;5049862;28;20041;-65
2023/09/12 09:19:15;;;;;;;1088.35;981.40;;;;;;;;;;5029162;28;20489;-63
2023/09/12 09:21:42;;;;;;;1098.95;990.28;;;;;;;;;;5048319;28;20047;-63
2023/09/12 09:24:11;;;;;;;1104.07;995.40;;;;;;;;;;5043561;28;20478;-63
2023/09/12 09:26:42;;;;;;;1122.00;999.90;;;;;;;;;;5030350;28;20433;-62
2023/09/12 09:29:09;;;;;;;1115.28;999.90;;;;;;;;;;5051368;28;20097;-62
2023/09/12 09:31:40;;;;;;;1120.65;999.90;;;;;;;;;;5049233;28;20045;-63
2023/09/12 09:34:08;;;;;;;;;;;;;;;;;;5047558;28;20045;-62
2023/09/12 09:36:35;;;;;;;1129.70;999.90;;;;;;;;;;5031653;28;19928;-62
2023/09/12 09:39:04;;;;;;;1135.65;999.90;;;;;;;;;;5032107;28;20049;-64
2023/09/12 09:41:32;;;;;;;1144.65;999.90;;;;;;;;;;5031311;28;20094;-69
2023/09/12 09:43:59;;;;;;;1130.45;999.90;;;;;;;;;;5032664;28;20051;-62
2023/09/12 09:46:26;;;;;;;1160.53;999.90;;;;;;;;;;5028960;28;20049;-63
2023/09/12 09:48:53;;;;;;;1143.47;999.90;;;;;;;;;;5047273;28;20498;-63
2023/09/12 09:51:20;;;;;;;1140.32;999.90;;;;;;;;;;5046652;28;20082;-64
2023/09/12 09:53:51;;;;;;;1136.38;999.90;;;;;;;;;;5030161;28;20375;-65
2023/09/12 09:56:18;;;;;;;1143.88;999.90;;;;;;;;;;5033073;28;20494;-63
2023/09/12 09:58:51;;;;;;;1141.47;999.90;;;;;;;;;;5048001;28;20107;-63
2023/09/12 10:01:28;;;;;;;1151.65;999.90;;;;;;;;;;5008745;28;20100;-73
2023/09/12 10:03:59;;;;;;;1140.38;999.90;;;;;;;;;;5027737;28;20156;-63
2023/09/12 10:06:28;;;;;;;1134.80;999.90;;;;;;;;;;5027936;28;20041;-64
2023/09/12 10:09:00;;;;;;;1132.20;999.90;;;;;;;;;;5036858;28;20048;-64
2023/09/12 10:11:29;;;;;;;1144.05;999.90;;;;;;;;;;5020444;28;20862;-63
2023/09/12 10:13:59;;;;;;;1126.35;999.90;;;;;;;;;;5039260;28;20045;-62
2023/09/12 10:16:33;;;;;;;1137.65;999.90;;;;;;;;;;5024562;28;20057;-63
2023/09/12 10:19:18;;;;;;;1142.05;999.90;;;;;;;;;;5040224;28;20049;-62
2023/09/12 10:22:08;;;;;;;1140.90;999.90;;;;;;;;;;5030595;28;20540;-63
2023/09/12 10:24:35;;;;;;;1147.70;999.90;;;;;;;;;;5016814;28;20045;-62
2023/09/12 10:27:03;;;;;;;1150.15;999.90;;;;;;;;;;5028686;28;20132;-63
2023/09/12 10:29:30;;;;;;;1166.57;999.90;;;;;;;;;;5051520;28;20067;-63
2023/09/12 10:31:57;;;;;;;1160.78;999.90;;;;;;;;;;5053494;28;20072;-63
2023/09/12 10:34:27;;;;;;;1146.07;999.90;;;;;;;;;;5050208;28;20095;-65
2023/09/12 10:36:55;;;;;;;1153.25;999.90;;;;;;;;;;5043785;28;20048;-64
2023/09/12 10:39:22;;;;;;;1161.05;999.90;;;;;;;;;;5050240;28;20514;-68
2023/09/12 10:41:49;;;;;;;1143.53;999.90;;;;;;;;;;5047774;28;20128;-64
2023/09/12 10:44:17;;;;;;;1144.95;999.90;;;;;;;;;;5036060;28;20081;-62
2023/09/12 10:46:44;;;;;;;1159.72;999.90;;;;;;;;;;5032795;28;20049;-62
2023/09/12 10:49:12;;;;;;;1153.50;999.90;;;;;;;;;;5046904;28;20413;-62
2023/09/12 10:51:49;;;;;;;1153.30;999.90;;;;;;;;;;5019127;28;20040;-62
2023/09/12 10:54:22;;;;;;;1153.55;999.90;;;;;;;;;;5046718;28;20047;-62
2023/09/12 10:57:03;;;;;;;1160.88;999.90;;;;;;;;;;5049616;28;20037;-62
2023/09/12 10:59:31;;;;;;;1151.80;999.90;;;;;;;;;;5031950;28;20048;-66
2023/09/12 11:02:18;;;;;;;1158.93;999.90;;;;;;;;;;5015226;28;20384;-63
2023/09/12 11:04:46;;;;;;;1158.45;999.90;;;;;;;;;;5050660;28;20468;-64
2023/09/12 11:07:42;;;;;;;1147.03;999.90;;;;;;;;;;5049756;28;20112;-63
2023/09/12 11:10:19;;;;;;;1161.32;999.90;;;;;;;;;;5032478;28;20053;-63
2023/09/12 11:12:50;;;;;;;1150.85;999.90;;;;;;;;;;5046252;28;20398;-62
2023/09/12 11:15:17;;;;;;;1147.45;999.90;;;;;;;;;;5045733;28;20462;-63
2023/09/12 11:17:45;;;;;;;1154.38;999.90;;;;;;;;;;5049424;28;20116;-64
2023/09/12 11:20:12;;;;;;;1157.15;999.90;;;;;;;;;;5053890;28;20057;-63
2023/09/12 11:22:44;;;;;;;1154.65;999.90;;;;;;;;;;5034579;28;20049;-63
2023/09/12 11:25:25;;;;;;;1145.05;999.90;;;;;;;;;;5026393;28;20056;-62
2023/09/12 11:27:52;;;;;;;1148.68;999.90;;;;;;;;;;5049558;28;20465;-64
2023/09/12 11:30:19;;;;;;;1152.18;999.90;;;;;;;;;;5049953;28;20045;-63
2023/09/12 11:32:47;;;;;;;1137.45;999.90;;;;;;;;;;5050370;28;20079;-62
2023/09/12 11:35:14;;;;;;;1163.72;999.90;;;;;;;;;;5033113;28;20052;-63
2023/09/12 11:37:51;;;;;;;1135.93;999.90;;;;;;;;;;5043605;28;20036;-62
2023/09/12 11:40:23;;;;;;;1143.13;999.90;;;;;;;;;;5040127;28;20121;-63
2023/09/12 11:42:50;;;;;;;1129.15;999.90;;;;;;;;;;5042944;28;20501;-63
2023/09/12 11:45:19;;;;;;;1141.70;999.90;;;;;;;;;;5030957;28;20115;-63
2023/09/12 11:47:46;;;;;;;1137.50;999.90;;;;;;;;;;5039719;28;20048;-62
2023/09/12 11:50:30;;;;;;;1134.07;999.90;;;;;;;;;;5041406;28;20049;-62
2023/09/12 11:53:00;;;;;;;1134.28;999.90;;;;;;;;;;5045790;28;20045;-64
2023/09/12 11:55:26;;;;;;;1161.70;999.90;;;;;;;;;;5049437;28;20048;-63
2023/09/12 11:57:53;;;;;;;1149.15;999.90;;;;;;;;;;5034019;28;20055;-62
2023/09/12 12:00:20;;;;;;;1131.45;999.90;;;;;;;;;;5046906;28;20039;-63
2023/09/12 12:02:47;;;;;;;1131.45;999.90;;;;;;;;;;5040091;28;20063;-62
2023/09/12 12:05:13;;;;;;;1142.15;999.90;;;;;;;;;;5045559;28;20049;-61
2023/09/12 12:07:42;;;;;;;1116.90;999.90;;;;;;;;;;5048657;28;20551;-66
2023/09/12 12:10:09;;;;;;;1127.05;999.90;;;;;;;;;;5044008;28;20513;-67
2023/09/12 12:12:36;;;;;;;1127.00;999.90;;;;;;;;;;5031089;28;20126;-65
2023/09/12 12:15:03;;;;;;;1127.18;999.90;;;;;;;;;;5048745;28;20041;-62
2023/09/12 12:17:30;;;;;;;1135.75;999.90;;;;;;;;;;5042832;28;20069;-63
2023/09/12 12:19:56;;;;;;;1116.63;999.90;;;;;;;;;;5042913;28;20068;-62
2023/09/12 12:22:23;;;;;;;1122.07;999.90;;;;;;;;;;5043731;28;20041;-63
2023/09/12 12:24:51;;;;;;;1116.35;999.90;;;;;;;;;;5045092;28;20052;-63
2023/09/12 12:27:18;;;;;;;1116.95;999.90;;;;;;;;;;5040235;28;20048;-62
2023/09/12 12:29:45;;;;;;;1140.63;999.90;;;;;;;;;;5048688;28;20049;-62
2023/09/12 12:32:17;;;;;;;1114.07;999.90;;;;;;;;;;5047253;28;20564;-63
2023/09/12 12:34:49;;;;;;;1128.15;999.90;;;;;;;;;;5041119;28;20045;-64
2023/09/12 12:37:36;;;;;;;1115.93;999.90;;;;;;;;;;5044068;28;20056;-62
2023/09/12 12:40:04;;;;;;;1100.68;993.50;;;;;;;;;;5048328;28;20091;-63
2023/09/12 12:42:35;;;;;;;1104.38;998.85;;;;;;;;;;5034200;28;20375;-63
2023/09/12 12:45:18;;;;;;;1132.32;999.90;;;;;;;;;;5048142;28;20114;-62
2023/09/12 12:47:46;;;;;;;1129.60;999.90;;;;;;;;;;5048133;28;20090;-62
2023/09/12 12:50:13;;;;;;;1144.03;999.90;;;;;;;;;;5034485;28;20037;-64
2023/09/12 12:52:41;;;;;;;1133.40;999.90;;;;;;;;;;5038351;28;20056;-62
2023/09/12 12:55:11;;;;;;;1134.72;999.90;;;;;;;;;;5048104;28;20037;-62
2023/09/12 12:57:38;;;;;;;1139.43;999.90;;;;;;;;;;5033634;28;20120;-62
2023/09/12 13:00:13;;;;;;;1138.28;999.90;;;;;;;;;;5047739;28;20038;-63
2023/09/12 13:02:40;;;;;;;1144.47;999.90;;;;;;;;;;5042913;28;20049;-62
2023/09/12 13:05:21;;;;;;;1145.25;999.90;;;;;;;;;;5040984;28;20440;-63
2023/09/12 13:07:51;;;;;;;1143.32;999.90;;;;;;;;;;5043174;28;20080;-62
2023/09/12 13:10:19;;;;;;;1146.63;999.90;;;;;;;;;;5026042;28;20071;-63
2023/09/12 13:12:48;;;;;;;1136.57;999.90;;;;;;;;;;5029459;28;20125;-63
2023/09/12 13:15:15;;;;;;;1145.97;999.90;;;;;;;;;;5031081;28;20092;-63
2023/09/12 13:17:42;;;;;;;1161.30;999.90;;;;;;;;;;5042448;28;20095;-64
2023/09/12 13:20:09;;;;;;;1154.88;999.90;;;;;;;;;;5043329;28;20056;-62
2023/09/12 13:22:36;;;;;;;1150.57;999.90;;;;;;;;;;5044738;28;20041;-63
2023/09/12 13:25:04;;;;;;;1147.20;999.90;;;;;;;;;;5025460;28;20413;-62
2023/09/12 13:27:33;;;;;;;1162.70;999.90;;;;;;;;;;5009026;28;20067;-63
2023/09/12 13:30:00;;;;;;;1162.32;999.90;;;;;;;;;;5036718;28;20037;-63
2023/09/12 13:32:27;;;;;;;1160.78;999.90;;;;;;;;;;5043009;28;20048;-67
2023/09/12 13:34:54;;;;;;;1124.43;999.90;;;;;;;;;;5042842;28;20125;-62
2023/09/12 13:37:23;;;;;;;1148.03;999.90;;;;;;;;;;5038228;28;20398;-63
2023/09/12 13:39:52;;;;;;;1150.32;999.90;;;;;;;;;;5025089;28;20048;-64
2023/09/12 13:42:20;;;;;;;1141.22;999.90;;;;;;;;;;5020859;28;20045;-61
2023/09/12 13:44:48;;;;;;;1145.32;999.90;;;;;;;;;;5038723;28;20108;-63
2023/09/12 13:47:21;;;;;;;1149.90;999.90;;;;;;;;;;5020997;28;20060;-63
2023/09/12 13:49:53;;;;;;;1125.90;999.90;;;;;;;;;;5031643;28;20052;-64
2023/09/12 13:52:20;;;;;;;1152.15;999.90;;;;;;;;;;5021620;28;20072;-63
2023/09/12 13:54:47;;;;;;;1142.32;999.90;;;;;;;;;;5039693;28;20056;-63
2023/09/12 13:57:15;;;;;;;1145.55;999.90;;;;;;;;;;5024889;28;20549;-64